createdAt,value
2019-04-02T00:01:07.603Z,3.20
2019-04-02T00:03:38.079Z,2.93
2019-04-02T00:06:09.769Z,3.00
2019-04-02T00:08:39.082Z,4.17
2019-04-02T00:11:08.992Z,4.43
2019-04-02T00:13:39.802Z,6.00
2019-04-02T00:16:10.055Z,4.27
2019-04-02T00:18:39.843Z,4.60
2019-04-02T00:21:14.322Z,2.67
2019-04-02T00:23:45.522Z,4.77
2019-04-02T00:26:15.608Z,4.93
2019-04-02T00:28:48.006Z,5.13
2019-04-02T00:31:25.403Z,5.40
2019-04-02T00:33:54.994Z,5.70
2019-04-02T00:36:26.824Z,6.07
2019-04-02T00:38:58.539Z,4.17
2019-04-02T00:41:37.006Z,4.40
2019-04-02T00:44:10.176Z,5.10
2019-04-02T00:46:40.764Z,5.83
2019-04-02T00:49:10.720Z,4.93
2019-04-02T00:51:39.949Z,12.03
2019-04-02T00:54:10.396Z,5.13
2019-04-02T00:56:41.646Z,5.77
2019-04-02T00:59:12.248Z,4.97
2019-04-02T01:01:48.967Z,6.97
2019-04-02T01:04:18.417Z,7.43
2019-04-02T01:06:47.936Z,11.13
2019-04-02T01:09:18.461Z,7.13
2019-04-02T01:11:49.242Z,7.10
2019-04-02T01:14:19.065Z,7.90
2019-04-02T01:16:48.194Z,7.60
2019-04-02T01:19:18.426Z,7.47
2019-04-02T01:21:48.938Z,9.13
2019-04-02T01:24:19.463Z,8.10
2019-04-02T01:26:50.997Z,9.73
2019-04-02T01:29:20.580Z,7.40
2019-04-02T01:31:51.191Z,8.63
2019-04-02T01:34:20.655Z,5.67
2019-04-02T01:36:53.307Z,7.07
2019-04-02T01:39:24.548Z,6.67
2019-04-02T01:41:55.388Z,7.70
2019-04-02T01:44:25.343Z,5.20
2019-04-02T01:46:55.561Z,6.67
2019-04-02T01:49:24.947Z,7.17
2019-04-02T01:52:03.228Z,7.83
2019-04-02T01:54:33.114Z,6.47
2019-04-02T01:57:02.740Z,6.00
2019-04-02T01:59:32.876Z,6.03
2019-04-02T02:02:02.773Z,6.70
2019-04-02T02:04:33.044Z,6.50
2019-04-02T02:07:02.621Z,6.17
2019-04-02T02:09:35.021Z,7.13
2019-04-02T02:12:06.316Z,4.87
2019-04-02T02:14:36.507Z,5.40
2019-04-02T02:17:06.212Z,6.47
2019-04-02T02:19:36.975Z,4.80
2019-04-02T02:22:07.553Z,4.80
2019-04-02T02:24:38.469Z,6.30
2019-04-02T02:27:11.096Z,5.80
2019-04-02T02:29:41.296Z,6.53
2019-04-02T02:32:20.996Z,4.27
2019-04-02T02:34:50.626Z,4.37
2019-04-02T02:37:19.892Z,5.73
2019-04-02T02:39:49.055Z,6.30
2019-04-02T02:42:19.962Z,5.20
2019-04-02T02:44:56.541Z,6.10
2019-04-02T02:47:27.567Z,6.03
2019-04-02T02:49:59.842Z,4.03
2019-04-02T02:52:32.680Z,6.13
2019-04-02T02:55:05.105Z,3.40
2019-04-02T02:57:34.477Z,4.70
2019-04-02T03:00:07.319Z,4.93
2019-04-02T03:02:37.575Z,3.67
2019-04-02T03:05:11.612Z,3.87
2019-04-02T03:07:41.580Z,7.50
2019-04-02T03:10:17.749Z,5.50
2019-04-02T03:13:26.279Z,3.67
2019-04-02T03:15:56.407Z,4.73
2019-04-02T03:18:26.571Z,6.03
2019-04-02T03:20:56.516Z,6.37
2019-04-02T03:23:26.154Z,4.20
2019-04-02T03:25:57.663Z,4.30
2019-04-02T03:28:27.745Z,4.60
2019-04-02T03:31:00.754Z,4.00
2019-04-02T03:33:29.052Z,3.93
2019-04-02T03:35:58.471Z,5.40
2019-04-02T03:38:27.657Z,5.10
2019-04-02T03:40:57.288Z,3.97
2019-04-02T03:43:31.890Z,6.00
2019-04-02T03:46:01.323Z,6.73
2019-04-02T03:48:30.694Z,5.77
2019-04-02T03:51:01.661Z,7.33
2019-04-02T03:53:32.912Z,6.53
2019-04-02T03:56:02.337Z,6.20
2019-04-02T03:58:32.513Z,7.23
2019-04-02T04:01:04.957Z,5.30
2019-04-02T04:03:39.343Z,4.17
2019-04-02T04:06:11.233Z,4.23
2019-04-02T04:08:40.651Z,5.20
2019-04-02T04:11:17.699Z,4.00
2019-04-02T04:13:47.689Z,6.10
2019-04-02T04:16:25.625Z,4.67
2019-04-02T04:19:00.211Z,4.73
2019-04-02T04:21:29.695Z,3.97
2019-04-02T04:23:59.866Z,4.23
2019-04-02T04:29:21.190Z,3.90
2019-04-02T04:31:51.365Z,5.47
2019-04-02T04:34:25.532Z,5.47
2019-04-02T04:36:57.464Z,3.87
2019-04-02T04:39:29.533Z,3.87
2019-04-02T04:41:58.819Z,3.97
2019-04-02T04:44:28.368Z,4.53
2019-04-02T04:46:59.346Z,3.50
2019-04-02T04:49:32.334Z,4.63
2019-04-02T04:52:08.269Z,7.40
2019-04-02T04:54:38.200Z,3.63
2019-04-02T04:57:09.075Z,5.50
2019-04-02T04:59:39.278Z,5.30
2019-04-02T05:02:50.329Z,5.37
2019-04-02T05:05:42.387Z,5.50
2019-04-02T05:08:17.781Z,4.40
2019-04-02T05:10:48.192Z,4.47
2019-04-02T05:13:20.003Z,9.40
2019-04-02T05:15:52.685Z,6.77
2019-04-02T05:18:23.093Z,3.80
2019-04-02T05:20:52.490Z,3.77
2019-04-02T05:23:29.811Z,3.80
2019-04-02T05:26:03.380Z,5.13
2019-04-02T05:28:32.781Z,4.37
2019-04-02T05:31:04.415Z,5.10
2019-04-02T05:37:47.164Z,3.73
2019-04-02T05:40:20.377Z,4.07
2019-04-02T05:43:03.596Z,5.30
2019-04-02T05:45:37.193Z,5.00
2019-04-02T05:48:07.271Z,4.37
2019-04-02T05:51:01.787Z,5.10
2019-04-02T05:53:33.342Z,5.60
2019-04-02T05:56:07.337Z,4.40
2019-04-02T05:58:39.434Z,4.77
2019-04-02T06:01:11.819Z,3.47
2019-04-02T06:04:00.693Z,6.63
2019-04-02T06:06:33.918Z,5.47
2019-04-02T06:09:05.706Z,6.77
2019-04-02T06:11:36.028Z,5.83
2019-04-02T06:14:12.674Z,6.13
2019-04-02T06:16:45.372Z,5.30
2019-04-02T06:19:56.028Z,5.50
2019-04-02T06:22:31.606Z,4.43
2019-04-02T06:25:02.976Z,4.03
2019-04-02T06:27:34.133Z,6.03
2019-04-02T06:30:03.683Z,3.73
2019-04-02T06:32:32.840Z,3.43
2019-04-02T06:35:23.097Z,4.97
2019-04-02T06:37:54.165Z,5.37
2019-04-02T06:40:29.145Z,5.70
2019-04-02T06:43:02.708Z,5.87
2019-04-02T06:45:39.168Z,3.77
2019-04-02T06:48:22.438Z,4.83
2019-04-02T06:50:52.254Z,4.80
2019-04-02T06:53:22.185Z,4.77
2019-04-02T06:55:51.141Z,6.53
2019-04-02T06:58:21.018Z,6.37
2019-04-02T07:00:49.942Z,5.33
2019-04-02T07:03:18.985Z,7.17
2019-04-02T07:05:47.820Z,5.03
2019-04-02T07:08:16.736Z,5.17
2019-04-02T07:10:45.842Z,4.13
2019-04-02T07:13:14.775Z,6.43
2019-04-02T07:15:45.528Z,6.50
2019-04-02T07:18:14.546Z,5.43
2019-04-02T07:20:43.562Z,7.27
2019-04-02T07:23:12.518Z,4.50
2019-04-02T07:25:42.734Z,6.43
2019-04-02T07:28:12.953Z,5.27
2019-04-02T07:30:42.069Z,4.53
2019-04-02T07:33:11.425Z,5.80
2019-04-02T07:35:42.348Z,6.00
2019-04-02T07:38:20.182Z,4.80
2019-04-02T07:40:49.182Z,8.03
2019-04-02T07:43:21.402Z,5.17
2019-04-02T07:45:50.796Z,8.83
2019-04-02T07:48:19.842Z,5.20
2019-04-02T07:50:49.785Z,5.83
2019-04-02T07:53:25.208Z,4.70
2019-04-02T07:55:54.384Z,4.87
2019-04-02T07:58:26.598Z,6.30
2019-04-02T08:00:56.330Z,5.37
2019-04-02T08:03:25.702Z,4.90
2019-04-02T08:05:58.675Z,5.80
2019-04-02T08:08:28.489Z,5.60
2019-04-02T08:10:57.819Z,5.10
2019-04-02T08:13:26.955Z,4.67
2019-04-02T08:15:56.601Z,6.10
2019-04-02T08:18:25.544Z,5.07
2019-04-02T08:20:54.694Z,7.17
2019-04-02T08:23:30.154Z,5.83
2019-04-02T08:26:00.836Z,6.97
2019-04-02T08:28:30.186Z,4.87
2019-04-02T08:30:59.168Z,5.73
2019-04-02T08:33:28.425Z,6.57
2019-04-02T08:35:57.521Z,4.83
2019-04-02T08:38:26.458Z,5.03
2019-04-02T08:40:55.402Z,5.30
2019-04-02T08:43:29.913Z,4.30
2019-04-02T08:46:00.250Z,6.60
2019-04-02T08:48:31.000Z,3.47
2019-04-02T08:51:00.111Z,5.83
2019-04-02T08:53:30.960Z,4.90
2019-04-02T08:56:00.181Z,4.63
2019-04-02T08:58:29.266Z,6.00
2019-04-02T09:01:02.932Z,5.20
2019-04-02T09:03:31.397Z,5.20
2019-04-02T09:06:00.330Z,6.57
2019-04-02T09:08:29.438Z,6.87
2019-04-02T09:10:58.425Z,6.10
2019-04-02T09:13:29.118Z,6.80
2019-04-02T09:15:58.693Z,6.10
2019-04-02T09:18:27.545Z,5.50
2019-04-02T09:20:56.607Z,6.13
2019-04-02T09:23:26.006Z,6.97
2019-04-02T09:25:55.376Z,6.63
2019-04-02T09:28:26.546Z,6.17
2019-04-02T09:30:55.413Z,6.60
2019-04-02T09:33:24.606Z,5.00
2019-04-02T09:35:53.713Z,5.17
2019-04-02T09:38:23.430Z,6.13
2019-04-02T09:40:52.629Z,5.13
2019-04-02T09:43:21.823Z,5.67
2019-04-02T09:45:52.337Z,7.50
2019-04-02T09:48:22.049Z,5.87
2019-04-02T09:50:51.858Z,7.13
2019-04-02T09:53:21.559Z,5.93
2019-04-02T09:55:53.708Z,7.30
2019-04-02T09:58:22.798Z,6.13
2019-04-02T10:00:52.450Z,5.90
2019-04-02T10:03:21.936Z,4.20
2019-04-02T10:05:51.554Z,5.93
2019-04-02T10:08:21.340Z,6.57
2019-04-02T10:10:52.488Z,5.30
2019-04-02T10:13:22.009Z,8.83
2019-04-02T10:15:54.953Z,4.33
2019-04-02T10:18:26.837Z,5.37
2019-04-02T10:20:56.043Z,5.33
2019-04-02T10:23:26.447Z,6.67
2019-04-02T10:25:56.933Z,5.73
2019-04-02T10:28:28.744Z,7.00
2019-04-02T10:30:59.547Z,5.60
2019-04-02T10:33:43.740Z,8.63
2019-04-02T10:36:12.681Z,6.60
2019-04-02T10:38:41.656Z,6.50
2019-04-02T10:41:10.794Z,5.97
2019-04-02T10:43:42.505Z,6.57
2019-04-02T10:46:12.314Z,5.00
2019-04-02T10:48:41.705Z,7.57
2019-04-02T10:51:10.806Z,5.07
2019-04-02T10:54:39.583Z,6.10
2019-04-02T10:57:09.242Z,7.17
2019-04-02T10:59:38.455Z,3.67
2019-04-02T11:02:07.577Z,6.53
2019-04-02T11:04:38.766Z,5.07
2019-04-02T11:07:10.287Z,5.23
2019-04-02T11:09:40.256Z,5.40
2019-04-02T11:12:21.136Z,6.73
2019-04-02T11:14:50.370Z,4.97
2019-04-02T11:17:19.797Z,6.80
2019-04-02T11:19:49.520Z,4.93
2019-04-02T11:22:19.331Z,6.00
2019-04-02T11:24:49.293Z,8.10
2019-04-02T11:27:18.429Z,7.00
2019-04-02T11:29:47.273Z,7.10
2019-04-02T11:32:16.318Z,5.33
2019-04-02T11:34:45.256Z,7.03
2019-04-02T11:37:15.169Z,5.33
2019-04-02T11:39:44.273Z,6.20
2019-04-02T11:42:14.050Z,5.43
2019-04-02T11:44:43.014Z,4.37
2019-04-02T11:47:33.859Z,5.00
2019-04-02T11:50:17.550Z,5.47
2019-04-02T11:52:59.158Z,5.00
2019-04-02T11:55:33.360Z,7.57
2019-04-02T11:58:02.960Z,6.07
2019-04-02T12:00:35.417Z,6.17
2019-04-02T12:03:06.781Z,4.60
2019-04-02T12:05:37.704Z,5.43
2019-04-02T12:08:15.173Z,5.53
2019-04-02T12:10:37.629Z,6.20
2019-04-02T12:13:06.846Z,6.60
2019-04-02T12:15:49.374Z,6.13
2019-04-02T12:18:06.763Z,7.03
2019-04-02T12:20:35.764Z,10.00
2019-04-02T12:23:05.065Z,5.90
2019-04-02T12:25:34.290Z,6.97
2019-04-02T12:28:05.466Z,5.87
2019-04-02T12:30:39.751Z,4.80
2019-04-02T12:33:09.625Z,5.87
2019-04-02T12:35:38.706Z,5.97
2019-04-02T12:38:11.541Z,8.97
2019-04-02T12:40:41.045Z,4.20
2019-04-02T12:43:10.006Z,5.00
2019-04-02T12:45:39.693Z,7.67
2019-04-02T12:48:08.733Z,8.43
2019-04-02T12:50:39.500Z,7.63
2019-04-02T12:53:08.560Z,4.83
2019-04-02T12:55:38.044Z,5.23
2019-04-02T12:58:07.026Z,4.77
2019-04-02T13:00:37.305Z,4.53
2019-04-02T13:03:11.007Z,3.77
2019-04-02T13:05:57.672Z,5.50
2019-04-02T13:08:15.923Z,8.90
2019-04-02T13:10:45.226Z,3.70
2019-04-02T13:13:14.666Z,7.13
2019-04-02T13:15:44.387Z,6.43
2019-04-02T13:18:13.278Z,5.97
2019-04-02T13:20:42.417Z,7.50
2019-04-02T13:23:20.024Z,4.37
2019-04-02T13:25:48.688Z,4.70
2019-04-02T13:28:19.260Z,5.10
2019-04-02T13:30:49.956Z,7.53
2019-04-02T13:33:21.913Z,4.47
2019-04-02T13:35:57.841Z,6.30
2019-04-02T13:38:27.468Z,6.80
2019-04-02T13:40:56.729Z,4.23
2019-04-02T13:43:27.313Z,5.03
2019-04-02T13:45:56.642Z,5.73
2019-04-02T13:48:25.645Z,4.60
2019-04-02T13:50:54.753Z,6.90
2019-04-02T13:53:24.067Z,5.40
2019-04-02T13:55:53.022Z,3.50
2019-04-02T13:58:23.296Z,4.17
2019-04-02T14:01:20.501Z,6.20
2019-04-02T14:03:56.757Z,4.80
2019-04-02T14:06:25.714Z,5.90
2019-04-02T14:08:54.657Z,5.27
2019-04-02T14:11:25.810Z,5.07
2019-04-02T14:14:00.954Z,6.03
2019-04-02T14:16:30.303Z,4.57
2019-04-02T14:18:59.954Z,5.13
2019-04-02T14:21:30.602Z,6.97
2019-04-02T14:24:00.234Z,4.47
2019-04-02T14:26:32.293Z,5.03
2019-04-02T14:29:01.614Z,3.50
2019-04-02T14:31:31.325Z,6.17
2019-04-02T14:34:00.406Z,7.70
2019-04-02T14:36:31.662Z,5.03
2019-04-02T14:39:00.539Z,7.23
2019-04-02T14:41:30.069Z,5.27
2019-04-02T14:44:00.507Z,7.63
2019-04-02T14:46:30.373Z,4.90
2019-04-02T14:48:59.826Z,6.40
2019-04-02T14:51:28.841Z,6.30
2019-04-02T14:54:05.698Z,4.13
2019-04-02T14:56:35.609Z,8.70
2019-04-02T14:59:04.501Z,5.60
2019-04-02T15:01:33.585Z,5.90
2019-04-02T15:04:02.985Z,6.33
2019-04-02T15:06:34.235Z,9.23
2019-04-02T15:09:07.516Z,3.40
2019-04-02T15:11:37.367Z,4.27
2019-04-02T15:14:06.729Z,5.17
2019-04-02T15:16:39.894Z,4.30
2019-04-02T15:19:09.732Z,8.33
2019-04-02T15:21:41.909Z,4.60
2019-04-02T15:24:13.696Z,5.30
2019-04-02T15:26:45.306Z,6.53
2019-04-02T15:29:14.934Z,4.90
2019-04-02T15:31:50.440Z,5.83
2019-04-02T15:34:22.303Z,6.83
2019-04-02T15:36:56.581Z,4.33
2019-04-02T15:39:27.795Z,6.53
2019-04-02T15:42:01.916Z,5.13
2019-04-02T15:44:30.940Z,9.20
2019-04-02T15:47:02.122Z,6.57
2019-04-02T15:49:31.517Z,7.53
2019-04-02T15:52:01.122Z,6.50
2019-04-02T15:54:32.403Z,5.27
2019-04-02T15:57:01.640Z,4.67
2019-04-02T15:59:31.662Z,7.13
2019-04-02T16:02:02.719Z,3.97
2019-04-02T16:04:32.885Z,5.73
2019-04-02T16:07:01.819Z,3.70
2019-04-02T16:09:32.037Z,6.73
2019-04-02T16:12:01.638Z,8.30
2019-04-02T16:14:30.854Z,7.00
2019-04-02T16:16:59.737Z,5.73
2019-04-02T16:19:31.682Z,9.83
2019-04-02T16:22:01.504Z,8.60
2019-04-02T16:24:32.022Z,10.33
2019-04-02T16:27:00.889Z,9.70
2019-04-02T16:29:29.837Z,5.00
2019-04-02T16:31:58.790Z,6.17
2019-04-02T16:34:38.273Z,7.50
2019-04-02T16:37:00.789Z,8.10
2019-04-02T16:39:30.078Z,6.47
2019-04-02T16:41:59.339Z,11.73
2019-04-02T16:44:28.274Z,9.40
2019-04-02T16:47:05.601Z,7.87
2019-04-02T16:49:36.399Z,5.77
2019-04-02T16:52:08.376Z,12.87
2019-04-02T16:54:41.869Z,4.10
2019-04-02T16:57:11.152Z,8.83
2019-04-02T16:59:40.441Z,7.27
2019-04-02T17:02:11.667Z,7.27
2019-04-02T17:04:40.497Z,7.80
2019-04-02T17:07:09.518Z,11.60
2019-04-02T17:09:42.427Z,7.53
2019-04-02T17:12:11.369Z,8.30
2019-04-02T17:14:40.314Z,12.07
2019-04-02T17:17:11.519Z,8.70
2019-04-02T17:19:44.265Z,9.20
2019-04-02T17:22:13.582Z,7.83
2019-04-02T17:24:43.601Z,4.83
2019-04-02T17:27:12.555Z,9.37
2019-04-02T17:29:41.614Z,4.10
2019-04-02T17:32:11.454Z,8.50
2019-04-02T17:34:40.758Z,9.17
2019-04-02T17:37:12.289Z,9.53
2019-04-02T17:39:44.028Z,4.07
2019-04-02T17:42:18.559Z,8.30
2019-04-02T17:44:48.617Z,8.63
2019-04-02T17:47:17.715Z,6.93
2019-04-02T17:49:46.673Z,9.73
2019-04-02T17:52:16.782Z,12.70
2019-04-02T17:54:45.808Z,7.87
2019-04-02T17:57:14.666Z,9.43
2019-04-02T17:59:43.640Z,9.73
2019-04-02T18:02:13.092Z,7.37
2019-04-02T18:04:43.877Z,9.07
2019-04-02T18:07:12.930Z,6.63
2019-04-02T18:09:42.718Z,11.37
2019-04-02T18:12:12.857Z,14.90
2019-04-02T18:14:42.481Z,9.53
2019-04-02T18:17:11.428Z,8.53
2019-04-02T18:19:40.977Z,9.50
2019-04-02T18:22:10.469Z,8.37
2019-04-02T18:24:39.589Z,9.20
2019-04-02T18:27:08.541Z,11.17
2019-04-02T18:29:37.776Z,9.03
2019-04-02T18:32:07.369Z,7.63
2019-04-02T18:34:36.354Z,10.07
2019-04-02T18:37:05.191Z,13.63
2019-04-02T18:39:37.466Z,9.47
2019-04-02T18:42:05.568Z,7.83
2019-04-02T18:44:34.609Z,9.73
2019-04-02T18:47:03.599Z,11.03
2019-04-02T18:49:32.579Z,13.13
2019-04-02T18:52:01.764Z,13.03
2019-04-02T18:54:30.667Z,12.43
2019-04-02T18:56:59.710Z,11.63
2019-04-02T18:59:28.621Z,15.90
2019-04-02T19:01:58.647Z,10.30
2019-04-02T19:04:29.847Z,8.63
2019-04-02T19:06:59.803Z,15.47
2019-04-02T19:09:30.527Z,15.17
2019-04-02T19:12:12.419Z,9.03
2019-04-02T19:14:35.353Z,13.77
2019-04-02T19:17:04.166Z,15.13
2019-04-02T19:19:39.063Z,11.03
2019-04-02T19:22:09.221Z,16.97
2019-04-02T19:24:42.407Z,14.10
2019-04-02T19:27:14.687Z,11.10
2019-04-02T19:29:45.611Z,13.60
2019-04-02T19:32:16.226Z,18.00
2019-04-02T19:34:45.999Z,12.73
2019-04-02T19:37:20.811Z,13.87
2019-04-02T19:39:51.424Z,11.80
2019-04-02T19:42:27.693Z,14.43
2019-04-02T19:44:57.347Z,14.10
2019-04-02T19:47:28.533Z,18.93
2019-04-02T19:50:00.162Z,15.43
2019-04-02T19:52:29.108Z,17.57
2019-04-02T19:55:03.633Z,15.80
2019-04-02T19:57:34.128Z,12.03
2019-04-02T20:00:05.149Z,10.23
2019-04-02T20:02:35.874Z,17.67
2019-04-02T20:05:07.930Z,11.23
2019-04-02T20:07:39.990Z,15.73
2019-04-02T20:10:16.541Z,15.43
2019-04-02T20:12:45.984Z,11.73
2019-04-02T20:15:17.438Z,14.17
2019-04-02T20:17:52.446Z,22.30
2019-04-02T20:20:23.482Z,13.53
2019-04-02T20:22:52.542Z,17.53
2019-04-02T20:25:26.741Z,13.97
2019-04-02T20:27:57.802Z,14.43
2019-04-02T20:30:30.097Z,15.63
2019-04-02T20:33:02.471Z,12.57
2019-04-02T20:35:34.039Z,15.20
2019-04-02T20:38:06.799Z,12.30
2019-04-02T20:40:40.786Z,18.93
2019-04-02T20:43:12.565Z,14.67
2019-04-02T20:45:42.454Z,14.57
2019-04-02T20:48:14.690Z,10.07
2019-04-02T20:50:43.772Z,12.10
2019-04-02T20:53:16.706Z,16.77
2019-04-02T20:55:47.777Z,17.10
2019-04-02T20:58:17.178Z,13.30
2019-04-02T21:00:48.806Z,19.17
2019-04-02T21:03:18.139Z,15.20
2019-04-02T21:05:56.671Z,17.40
2019-04-02T21:08:22.559Z,10.60
2019-04-02T21:10:51.615Z,12.90
2019-04-02T21:13:20.524Z,12.40
2019-04-02T21:15:49.505Z,16.30
2019-04-02T21:18:18.678Z,13.50
2019-04-02T21:20:47.724Z,12.97
2019-04-02T21:23:18.169Z,16.87
2019-04-02T21:25:49.303Z,15.23
2019-04-02T21:28:18.400Z,15.50
2019-04-02T21:30:47.605Z,13.67
2019-04-02T21:33:33.602Z,18.40
2019-04-02T21:35:52.472Z,13.70
2019-04-02T21:38:21.447Z,15.57
2019-04-02T21:40:50.575Z,13.70
2019-04-02T21:43:35.104Z,18.23
2019-04-02T21:46:05.201Z,12.33
2019-04-02T21:48:42.043Z,18.63
2019-04-02T21:51:12.926Z,9.47
2019-04-02T21:53:42.497Z,14.67
2019-04-02T21:56:12.376Z,14.30
2019-04-02T21:58:41.843Z,15.57
2019-04-02T22:01:11.948Z,13.53
2019-04-02T22:03:40.931Z,12.23
2019-04-02T22:06:12.101Z,13.13
2019-04-02T22:08:42.807Z,14.03
2019-04-02T22:11:12.571Z,12.97
2019-04-02T22:14:25.750Z,14.50
2019-04-02T22:16:54.683Z,14.23
2019-04-02T22:19:34.591Z,13.13
2019-04-02T22:22:04.124Z,15.83
2019-04-02T22:24:33.101Z,11.00
2019-04-02T22:27:02.071Z,16.57
2019-04-02T22:29:30.914Z,16.57
2019-04-02T22:32:13.768Z,15.60
2019-04-02T22:34:47.960Z,19.17
2019-04-02T22:37:08.804Z,17.70
2019-04-02T22:39:38.916Z,15.33
2019-04-02T22:42:12.534Z,18.87
2019-04-02T22:44:44.341Z,13.77
2019-04-02T22:47:14.071Z,21.80
2019-04-02T22:49:46.191Z,15.40
2019-04-02T22:52:33.763Z,17.90
2019-04-02T22:55:03.112Z,15.53
2019-04-02T22:57:33.308Z,13.83
2019-04-02T23:00:03.696Z,17.73
2019-04-02T23:02:36.251Z,16.97
2019-04-02T23:05:09.950Z,17.67
2019-04-02T23:07:44.670Z,14.17
2019-04-02T23:10:15.689Z,15.17
2019-04-02T23:12:50.187Z,15.73
2019-04-02T23:15:23.141Z,14.63
2019-04-02T23:17:56.011Z,18.27
2019-04-02T23:20:27.523Z,15.17
2019-04-02T23:23:17.360Z,18.93
2019-04-02T23:25:47.908Z,12.47
2019-04-02T23:28:19.487Z,17.43
2019-04-02T23:30:54.236Z,14.80
2019-04-02T23:33:34.185Z,16.07
2019-04-02T23:36:03.419Z,13.70
2019-04-02T23:38:33.520Z,15.97
2019-04-02T23:41:03.258Z,11.90
2019-04-02T23:43:35.555Z,16.53
2019-04-02T23:46:04.907Z,17.43
2019-04-02T23:48:36.566Z,15.47
2019-04-02T23:51:06.395Z,15.20
2019-04-02T23:53:36.955Z,14.10
2019-04-02T23:56:06.612Z,14.70
2019-04-02T23:58:35.960Z,14.53
